createdAt,value
2022-09-12T00:00:07.891Z,96.94
2022-09-12T00:01:17.217Z,97.02
2022-09-12T00:02:21.301Z,96.72
2022-09-12T00:03:25.652Z,96.43
2022-09-12T00:04:29.402Z,96.15
2022-09-12T00:05:32.182Z,95.48
2022-09-12T00:06:37.922Z,95.42
2022-09-12T00:07:40.817Z,95.39
2022-09-12T00:08:42.966Z,95.70
2022-09-12T00:09:44.979Z,95.32
2022-09-12T00:10:47.333Z,94.85
2022-09-12T00:11:49.714Z,95.11
2022-09-12T00:12:52.050Z,96.22
2022-09-12T00:13:59.867Z,96.73
2022-09-12T00:15:02.043Z,96.89
2022-09-12T00:16:05.051Z,96.76
2022-09-12T00:17:07.169Z,96.50
2022-09-12T00:18:15.673Z,96.35
2022-09-12T00:19:18.084Z,95.78
2022-09-12T00:20:20.742Z,95.86
2022-09-12T00:21:24.415Z,95.67
2022-09-12T00:22:26.931Z,95.76
2022-09-12T00:23:28.919Z,95.39
2022-09-12T00:24:30.830Z,95.36
2022-09-12T00:25:32.969Z,94.98
2022-09-12T00:26:34.995Z,95.21
2022-09-12T00:27:36.912Z,94.85
2022-09-12T00:28:40.843Z,94.69
2022-09-12T00:29:43.240Z,94.68
2022-09-12T00:30:48.117Z,94.12
2022-09-12T00:31:50.182Z,93.58
2022-09-12T00:32:52.195Z,93.68
2022-09-12T00:33:57.642Z,94.20
2022-09-12T00:34:59.599Z,94.25
2022-09-12T00:37:15.233Z,94.18
2022-09-12T00:38:17.090Z,93.77
2022-09-12T00:39:18.972Z,93.77
2022-09-12T00:40:22.236Z,93.61
2022-09-12T00:41:27.792Z,93.94
2022-09-12T00:42:29.743Z,93.89
2022-09-12T00:43:40.867Z,93.86
2022-09-12T00:44:46.401Z,93.76
2022-09-12T00:45:48.478Z,93.62
2022-09-12T00:47:03.737Z,93.66
2022-09-12T00:48:10.336Z,94.06
2022-09-12T00:49:24.984Z,94.18
2022-09-12T00:50:28.043Z,93.91
2022-09-12T00:51:33.485Z,94.30
2022-09-12T00:52:41.860Z,94.09
2022-09-12T00:53:45.938Z,94.77
2022-09-12T00:54:51.521Z,94.60
2022-09-12T00:55:55.165Z,94.57
2022-09-12T00:57:01.321Z,94.10
2022-09-12T00:58:12.875Z,93.97
2022-09-12T00:59:21.328Z,94.35
2022-09-12T01:00:26.399Z,94.82
2022-09-12T01:01:32.415Z,94.42
2022-09-12T01:02:32.857Z,94.08
2022-09-12T01:03:34.883Z,94.66
2022-09-12T01:04:40.216Z,94.74
2022-09-12T01:05:45.674Z,94.81
2022-09-12T01:06:50.409Z,94.38
2022-09-12T01:07:53.998Z,94.19
2022-09-12T01:08:57.986Z,94.22
2022-09-12T01:10:00.254Z,94.59
2022-09-12T01:11:03.769Z,94.80
2022-09-12T01:12:06.357Z,94.66
2022-09-12T01:13:10.914Z,94.94
2022-09-12T01:14:14.422Z,93.94
2022-09-12T01:15:16.570Z,94.28
2022-09-12T01:16:18.830Z,94.23
2022-09-12T01:17:23.848Z,93.68
2022-09-12T01:18:32.361Z,93.07
2022-09-12T01:19:40.944Z,93.20
2022-09-12T01:20:52.580Z,93.75
2022-09-12T01:22:29.367Z,93.14
2022-09-12T01:24:08.584Z,92.38
2022-09-12T01:25:41.748Z,92.88
2022-09-12T01:27:07.377Z,92.77
2022-09-12T01:28:37.357Z,92.46
2022-09-12T01:29:46.225Z,93.37
2022-09-12T01:31:10.909Z,92.82
2022-09-12T01:32:22.480Z,93.23
2022-09-12T01:33:37.642Z,94.43
2022-09-12T01:34:49.230Z,93.78
2022-09-12T01:36:06.546Z,94.33
2022-09-12T01:37:30.548Z,94.34
2022-09-12T01:38:36.128Z,94.73
2022-09-12T01:39:57.213Z,94.57
2022-09-12T01:41:15.179Z,94.81
2022-09-12T01:42:34.829Z,94.48
2022-09-12T01:43:43.393Z,94.33
2022-09-12T01:45:10.287Z,94.00
2022-09-12T01:46:25.181Z,94.46
2022-09-12T01:47:30.784Z,93.45
2022-09-12T01:48:36.561Z,93.48
2022-09-12T01:49:51.567Z,93.30
2022-09-12T01:51:03.192Z,92.93
2022-09-12T01:52:09.242Z,93.69
2022-09-12T01:53:26.638Z,94.31
2022-09-12T01:54:51.831Z,94.13
2022-09-12T01:56:09.109Z,93.98
2022-09-12T01:57:17.959Z,93.37
2022-09-12T01:58:26.606Z,93.45
2022-09-12T01:59:34.985Z,93.91
2022-09-12T02:00:47.130Z,93.47
2022-09-12T02:01:59.087Z,93.97
2022-09-12T02:03:10.556Z,93.41
2022-09-12T02:04:19.758Z,93.05
2022-09-12T02:05:40.686Z,93.38
2022-09-12T02:06:49.155Z,93.19
2022-09-12T02:08:03.974Z,93.20
2022-09-12T02:09:12.617Z,93.26
2022-09-12T02:10:22.771Z,93.62
2022-09-12T02:11:25.616Z,93.35
2022-09-12T02:12:31.545Z,93.49
2022-09-12T02:13:40.471Z,93.33
2022-09-12T02:14:53.787Z,93.37
2022-09-12T02:15:59.381Z,93.19
2022-09-12T02:17:08.189Z,92.61
2022-09-12T02:18:14.642Z,92.72
2022-09-12T02:19:22.761Z,92.26
2022-09-12T02:20:47.325Z,92.53
2022-09-12T02:21:37.918Z,92.76
2022-09-12T02:22:42.561Z,92.72
2022-09-12T02:23:48.212Z,93.16
2022-09-12T02:24:53.820Z,93.22
2022-09-12T02:25:59.231Z,93.73
2022-09-12T02:27:14.111Z,93.43
2022-09-12T02:28:19.685Z,93.41
2022-09-12T02:29:22.588Z,93.44
2022-09-12T02:30:27.226Z,93.49
2022-09-12T02:31:47.193Z,93.37
2022-09-12T02:33:01.283Z,92.88
2022-09-12T02:34:19.511Z,93.10
2022-09-12T02:35:40.669Z,93.91
2022-09-12T02:36:52.355Z,94.49
2022-09-12T02:38:04.283Z,93.98
2022-09-12T02:39:06.438Z,94.51
2022-09-12T02:40:10.314Z,94.45
2022-09-12T02:41:16.607Z,94.58
2022-09-12T02:42:18.654Z,95.20
2022-09-12T02:43:20.863Z,95.20
2022-09-12T02:44:24.576Z,94.90
2022-09-12T02:45:26.600Z,94.66
2022-09-12T02:46:38.368Z,94.55
2022-09-12T02:47:50.542Z,94.58
2022-09-12T02:48:53.416Z,94.48
2022-09-12T02:49:57.460Z,93.72
2022-09-12T02:51:00.855Z,93.85
2022-09-12T02:52:03.404Z,94.56
2022-09-12T02:53:07.317Z,95.02
2022-09-12T02:54:10.257Z,94.51
2022-09-12T02:55:14.601Z,93.64
2022-09-12T02:56:23.466Z,93.57
2022-09-12T02:57:26.161Z,93.99
2022-09-12T02:58:30.725Z,94.27
2022-09-12T02:59:33.344Z,93.41
2022-09-12T03:00:39.151Z,92.64
2022-09-12T03:02:12.285Z,92.30
2022-09-12T03:05:02.754Z,91.90
2022-09-12T03:06:20.085Z,91.43
2022-09-12T03:07:43.940Z,91.74
2022-09-12T03:08:55.505Z,92.23
2022-09-12T03:10:07.199Z,93.03
2022-09-12T03:11:15.883Z,92.09
2022-09-12T03:12:33.736Z,92.36
2022-09-12T03:13:54.482Z,92.74
2022-09-12T03:15:09.884Z,92.18
2022-09-12T03:16:25.315Z,92.48
2022-09-12T03:17:33.774Z,92.77
2022-09-12T03:18:54.645Z,92.87
2022-09-12T03:20:02.969Z,92.07
2022-09-12T03:21:34.679Z,91.92
2022-09-12T03:22:55.703Z,91.77
2022-09-12T03:24:16.890Z,92.75
2022-09-12T03:25:22.615Z,92.84
2022-09-12T03:26:36.659Z,93.72
2022-09-12T03:27:42.238Z,94.12
2022-09-12T03:28:46.934Z,94.00
2022-09-12T03:29:51.495Z,93.48
2022-09-12T03:30:54.384Z,93.37
2022-09-12T03:31:58.199Z,93.47
2022-09-12T03:33:00.074Z,93.35
2022-09-12T03:34:02.523Z,93.14
2022-09-12T03:35:05.532Z,92.94
2022-09-12T03:36:23.428Z,93.42
2022-09-12T03:37:25.305Z,93.62
2022-09-12T03:38:26.907Z,93.15
2022-09-12T03:39:29.170Z,92.96
2022-09-12T03:40:31.828Z,92.74
2022-09-12T03:41:33.567Z,92.56
2022-09-12T03:42:35.605Z,92.32
2022-09-12T03:43:37.638Z,92.23
2022-09-12T03:44:39.850Z,92.01
2022-09-12T03:45:42.043Z,92.01
2022-09-12T03:46:44.299Z,91.54
2022-09-12T03:47:46.258Z,91.63
2022-09-12T03:48:48.173Z,91.70
2022-09-12T03:49:50.160Z,91.19
2022-09-12T03:50:52.144Z,91.19
2022-09-12T03:51:54.484Z,91.18
2022-09-12T03:52:58.727Z,91.14
2022-09-12T03:54:00.716Z,91.16
2022-09-12T03:55:03.007Z,91.12
2022-09-12T03:56:07.367Z,91.18
2022-09-12T03:57:09.843Z,91.09
2022-09-12T03:58:12.237Z,90.95
2022-09-12T03:59:14.589Z,91.03
2022-09-12T04:00:19.882Z,90.90
2022-09-12T04:01:21.893Z,90.58
2022-09-12T04:02:23.977Z,90.79
2022-09-12T04:03:25.885Z,90.47
2022-09-12T04:04:28.317Z,90.06
2022-09-12T04:05:30.114Z,90.53
2022-09-12T04:06:32.829Z,90.87
2022-09-12T04:07:34.630Z,90.99
2022-09-12T04:08:37.560Z,90.80
2022-09-12T04:09:39.568Z,90.08
2022-09-12T04:10:41.753Z,89.76
2022-09-12T04:11:43.603Z,89.93
2022-09-12T04:12:45.608Z,90.30
2022-09-12T04:13:48.154Z,90.78
2022-09-12T04:14:50.298Z,90.67
2022-09-12T04:15:57.126Z,90.62
2022-09-12T04:17:00.236Z,90.66
2022-09-12T04:18:05.703Z,90.76
2022-09-12T04:19:06.597Z,90.83
2022-09-12T04:20:10.305Z,90.30
2022-09-12T04:21:15.988Z,90.54
2022-09-12T04:22:18.366Z,90.60
2022-09-12T04:23:20.743Z,90.77
2022-09-12T04:24:22.772Z,90.90
2022-09-12T04:25:24.698Z,91.07
2022-09-12T04:26:27.312Z,91.24
2022-09-12T04:27:29.233Z,90.88
2022-09-12T04:28:32.146Z,91.21
2022-09-12T04:29:34.617Z,91.12
2022-09-12T04:30:37.138Z,90.49
2022-09-12T04:31:39.052Z,89.93
2022-09-12T04:32:40.936Z,90.12
2022-09-12T04:33:44.485Z,90.35
2022-09-12T04:34:46.702Z,90.22
2022-09-12T04:35:49.202Z,89.75
2022-09-12T04:36:52.123Z,89.79
2022-09-12T04:37:53.938Z,89.94
2022-09-12T04:39:02.137Z,90.28
2022-09-12T04:40:04.902Z,90.73
2022-09-12T04:41:13.106Z,91.53
2022-09-12T04:42:15.455Z,91.79
2022-09-12T04:43:17.968Z,92.43
2022-09-12T04:44:20.122Z,93.01
2022-09-12T04:45:22.760Z,93.11
2022-09-12T04:46:29.046Z,94.33
2022-09-12T04:47:31.186Z,95.28
2022-09-12T04:48:33.177Z,95.22
2022-09-12T04:49:35.194Z,95.35
2022-09-12T04:50:38.492Z,95.72
2022-09-12T04:51:43.344Z,96.90
2022-09-12T04:52:51.089Z,97.62
2022-09-12T04:53:55.261Z,97.79
2022-09-12T04:54:57.192Z,97.99
2022-09-12T04:56:03.471Z,98.45
2022-09-12T04:57:06.284Z,96.84
2022-09-12T04:58:08.160Z,97.04
2022-09-12T04:59:12.113Z,92.49
2022-09-12T05:00:15.716Z,92.49
2022-09-12T05:01:20.405Z,92.91
2022-09-12T05:02:22.379Z,92.18
2022-09-12T05:03:24.798Z,93.29
2022-09-12T05:04:26.596Z,93.07
2022-09-12T05:05:28.937Z,92.04
2022-09-12T05:07:45.390Z,93.82
2022-09-12T05:08:47.503Z,94.42
2022-09-12T05:09:49.911Z,95.35
2022-09-12T05:10:51.996Z,96.08
2022-09-12T05:12:09.185Z,94.87
2022-09-12T05:12:57.625Z,95.26
2022-09-12T05:13:59.652Z,95.09
2022-09-12T05:15:02.216Z,94.97
2022-09-12T05:16:06.255Z,95.43
2022-09-12T05:17:08.221Z,96.15
2022-09-12T05:18:10.513Z,96.13
2022-09-12T05:19:12.342Z,95.27
2022-09-12T05:20:15.159Z,95.47
2022-09-12T05:21:19.957Z,95.47
2022-09-12T05:22:22.184Z,94.70
2022-09-12T05:23:24.312Z,95.10
2022-09-12T05:24:26.815Z,95.57
2022-09-12T05:25:28.608Z,95.04
2022-09-12T05:26:31.454Z,94.76
2022-09-12T05:27:33.834Z,94.50
2022-09-12T05:28:37.507Z,93.17
2022-09-12T05:29:40.095Z,93.45
2022-09-12T05:30:42.238Z,93.39
2022-09-12T05:31:44.519Z,93.50
2022-09-12T05:32:46.220Z,92.80
2022-09-12T05:33:50.033Z,92.96
2022-09-12T05:34:52.036Z,93.43
2022-09-12T05:35:53.974Z,93.73
2022-09-12T05:36:56.530Z,93.27
2022-09-12T05:37:59.009Z,92.79
2022-09-12T05:39:01.259Z,92.56
2022-09-12T05:40:04.107Z,92.97
2022-09-12T05:42:29.394Z,92.46
2022-09-12T05:43:34.112Z,93.30
2022-09-12T05:44:36.096Z,93.51
2022-09-12T05:45:38.646Z,92.58
2022-09-12T05:46:43.634Z,92.73
2022-09-12T05:47:46.503Z,93.41
2022-09-12T05:48:55.042Z,93.13
2022-09-12T05:49:53.800Z,92.08
2022-09-12T05:52:15.294Z,91.15
2022-09-12T05:53:17.050Z,88.65
2022-09-12T05:54:19.805Z,88.65
2022-09-12T05:55:21.905Z,89.59
2022-09-12T05:56:27.146Z,89.84
2022-09-12T05:57:29.296Z,89.44
2022-09-12T05:58:31.765Z,89.52
2022-09-12T05:59:34.255Z,89.92
2022-09-12T06:00:36.654Z,89.46
2022-09-12T06:01:39.606Z,90.36
2022-09-12T06:02:41.751Z,90.09
2022-09-12T06:03:46.736Z,90.07
2022-09-12T06:04:48.742Z,90.65
2022-09-12T06:05:50.803Z,89.65
2022-09-12T06:06:53.015Z,89.83
2022-09-12T06:07:55.245Z,89.87
2022-09-12T06:09:00.524Z,90.43
2022-09-12T06:10:03.941Z,90.20
2022-09-12T06:11:07.401Z,90.06
2022-09-12T06:12:09.686Z,89.37
2022-09-12T06:13:12.526Z,89.27
2022-09-12T06:14:18.961Z,89.35
2022-09-12T06:15:21.213Z,88.82
2022-09-12T06:16:28.042Z,88.34
2022-09-12T06:17:30.468Z,88.23
2022-09-12T06:18:32.498Z,88.31
2022-09-12T06:19:34.295Z,88.31
2022-09-12T06:20:36.231Z,88.33
2022-09-12T06:21:38.133Z,88.43
2022-09-12T06:22:40.332Z,88.14
2022-09-12T06:23:43.624Z,87.40
2022-09-12T06:24:45.666Z,87.23
2022-09-12T06:25:48.656Z,86.79
2022-09-12T06:26:50.796Z,87.22
2022-09-12T06:27:52.985Z,87.20
2022-09-12T06:28:56.933Z,86.86
2022-09-12T06:29:58.886Z,86.27
2022-09-12T06:31:04.219Z,84.98
2022-09-12T06:32:07.526Z,85.83
2022-09-12T06:33:10.394Z,86.83
2022-09-12T06:34:14.323Z,86.20
2022-09-12T06:35:16.428Z,86.80
2022-09-12T06:36:29.777Z,86.99
2022-09-12T06:37:32.376Z,88.74
2022-09-12T06:38:34.361Z,86.58
2022-09-12T06:39:36.402Z,85.22
2022-09-12T06:40:42.911Z,85.38
2022-09-12T06:41:45.612Z,84.91
2022-09-12T06:42:47.478Z,85.13
2022-09-12T06:43:52.471Z,84.82
2022-09-12T06:44:54.495Z,85.37
2022-09-12T06:45:56.903Z,85.94
2022-09-12T06:46:59.661Z,86.13
2022-09-12T06:48:02.725Z,83.65
2022-09-12T06:49:04.654Z,84.35
2022-09-12T06:50:08.064Z,84.44
2022-09-12T06:51:12.509Z,85.41
2022-09-12T06:52:14.489Z,85.09
2022-09-12T06:53:16.339Z,86.01
2022-09-12T06:54:18.951Z,85.82
2022-09-12T06:55:23.551Z,85.19
2022-09-12T06:56:27.200Z,83.34
2022-09-12T06:57:29.056Z,82.54
2022-09-12T06:58:31.530Z,82.27
2022-09-12T06:59:33.449Z,82.27
2022-09-12T07:00:35.926Z,81.92
2022-09-12T07:01:38.735Z,80.67
2022-09-12T07:02:40.812Z,81.12
2022-09-12T07:03:55.665Z,81.42
2022-09-12T07:04:57.685Z,80.66
2022-09-12T07:06:05.486Z,81.26
2022-09-12T07:07:07.295Z,81.00
2022-09-12T07:08:09.798Z,81.04
2022-09-12T07:09:14.209Z,81.90
2022-09-12T07:10:22.090Z,82.30
2022-09-12T07:11:23.934Z,82.83
2022-09-12T07:12:27.885Z,81.15
2022-09-12T07:13:29.720Z,81.24
2022-09-12T07:14:33.903Z,80.73
2022-09-12T07:15:35.724Z,82.01
2022-09-12T07:16:39.120Z,80.55
2022-09-12T07:17:41.118Z,81.16
2022-09-12T07:18:43.364Z,81.31
2022-09-12T07:19:45.242Z,80.06
2022-09-12T07:20:47.665Z,80.81
2022-09-12T07:21:49.914Z,81.56
2022-09-12T07:22:52.977Z,81.87
2022-09-12T07:23:55.594Z,81.13
2022-09-12T07:24:57.870Z,80.57
2022-09-12T07:26:00.634Z,80.57
2022-09-12T07:27:04.908Z,79.91
2022-09-12T07:28:06.834Z,79.66
2022-09-12T07:30:19.997Z,80.01
2022-09-12T07:31:24.607Z,78.67
2022-09-12T07:32:26.947Z,77.99
2022-09-12T07:33:29.326Z,78.25
2022-09-12T07:34:31.662Z,77.25
2022-09-12T07:35:33.893Z,77.54
2022-09-12T07:36:37.117Z,77.81
2022-09-12T07:37:39.626Z,77.53
2022-09-12T07:38:42.532Z,76.51
2022-09-12T07:39:44.972Z,76.63
2022-09-12T07:40:48.660Z,76.66
2022-09-12T07:41:50.982Z,76.17
2022-09-12T07:42:53.334Z,76.09
2022-09-12T07:43:57.697Z,76.26
2022-09-12T07:45:00.357Z,77.13
2022-09-12T07:46:18.557Z,77.40
2022-09-12T07:47:22.535Z,76.90
2022-09-12T07:48:29.160Z,76.31
2022-09-12T07:49:35.891Z,75.31
2022-09-12T07:50:45.134Z,75.77
2022-09-12T07:51:46.305Z,77.86
2022-09-12T07:52:51.171Z,78.17
2022-09-12T07:53:54.141Z,78.31
2022-09-12T07:54:56.076Z,77.96
2022-09-12T07:55:58.095Z,76.70
2022-09-12T07:57:01.041Z,76.15
2022-09-12T07:58:04.034Z,76.08
2022-09-12T07:59:07.509Z,75.20
2022-09-12T08:00:10.613Z,75.29
2022-09-12T08:01:17.891Z,75.15
2022-09-12T08:02:20.965Z,75.41
2022-09-12T08:03:22.982Z,75.37
2022-09-12T08:04:24.849Z,75.47
2022-09-12T08:05:26.817Z,75.32
2022-09-12T08:07:55.866Z,75.23
2022-09-12T08:08:58.949Z,74.64
2022-09-12T08:10:01.005Z,73.86
2022-09-12T08:11:06.549Z,73.77
2022-09-12T08:12:08.884Z,76.25
2022-09-12T08:13:11.017Z,77.14
2022-09-12T08:14:13.078Z,77.22
2022-09-12T08:15:15.049Z,77.36
2022-09-12T08:16:20.087Z,77.43
2022-09-12T08:17:22.122Z,76.64
2022-09-12T08:18:24.175Z,77.43
2022-09-12T08:19:26.276Z,78.48
2022-09-12T08:20:30.116Z,78.33
2022-09-12T08:21:33.556Z,78.08
2022-09-12T08:22:36.182Z,77.79
2022-09-12T08:23:38.638Z,77.56
2022-09-12T08:24:41.132Z,77.67
2022-09-12T08:25:43.180Z,78.35
2022-09-12T08:26:45.550Z,77.86
2022-09-12T08:27:47.906Z,79.07
2022-09-12T08:28:50.306Z,79.62
2022-09-12T08:29:52.320Z,79.46
2022-09-12T08:30:56.363Z,79.32
2022-09-12T08:31:59.078Z,79.16
2022-09-12T08:33:00.863Z,80.57
2022-09-12T08:34:04.603Z,80.10
2022-09-12T08:35:07.324Z,80.16
2022-09-12T08:36:15.499Z,79.73
2022-09-12T08:37:17.599Z,78.80
2022-09-12T08:38:25.745Z,78.25
2022-09-12T08:39:27.688Z,78.05
2022-09-12T08:40:29.828Z,77.44
2022-09-12T08:41:40.970Z,77.16
2022-09-12T08:42:52.895Z,76.90
2022-09-12T08:44:17.104Z,77.12
2022-09-12T08:47:03.070Z,79.03
2022-09-12T08:48:07.722Z,79.09
2022-09-12T08:49:13.869Z,78.78
2022-09-12T08:50:20.064Z,77.49
2022-09-12T08:51:23.820Z,76.76
2022-09-12T08:52:30.042Z,78.99
2022-09-12T08:53:35.850Z,76.36
2022-09-12T08:54:40.591Z,76.09
2022-09-12T08:55:45.322Z,77.46
2022-09-12T08:56:48.068Z,77.35
2022-09-12T08:57:51.054Z,77.70
2022-09-12T08:58:52.997Z,79.99
2022-09-12T08:59:55.921Z,79.05
2022-09-12T09:01:02.140Z,78.98
2022-09-12T09:02:06.815Z,78.70
2022-09-12T09:03:18.675Z,77.87
2022-09-12T09:05:43.508Z,75.73
2022-09-12T09:06:57.163Z,75.82
2022-09-12T09:08:24.299Z,75.87
2022-09-12T09:09:44.889Z,75.66
2022-09-12T09:11:06.310Z,75.34
2022-09-12T09:12:28.024Z,74.38
2022-09-12T09:13:39.670Z,73.69
2022-09-12T09:15:02.061Z,73.25
2022-09-12T09:16:07.965Z,72.70
2022-09-12T09:17:25.741Z,71.75
2022-09-12T09:18:31.732Z,71.77
2022-09-12T09:19:40.340Z,71.28
2022-09-12T09:20:46.021Z,71.02
2022-09-12T09:21:57.966Z,71.22
2022-09-12T09:23:24.637Z,71.11
2022-09-12T09:24:37.428Z,70.22
2022-09-12T09:25:45.757Z,69.65
2022-09-12T09:26:54.442Z,69.34
2022-09-12T09:28:03.225Z,69.16
2022-09-12T09:30:20.897Z,68.59
2022-09-12T09:31:25.150Z,68.31
2022-09-12T09:32:33.739Z,67.96
2022-09-12T09:33:38.136Z,67.92
2022-09-12T09:34:40.187Z,67.96
2022-09-12T09:35:47.532Z,67.40
2022-09-12T09:36:53.258Z,68.39
2022-09-12T09:38:04.691Z,68.92
2022-09-12T09:39:33.364Z,68.48
2022-09-12T09:40:40.123Z,69.61
2022-09-12T09:41:55.240Z,68.65
2022-09-12T09:43:20.433Z,67.59
2022-09-12T09:44:22.977Z,67.89
2022-09-12T09:45:25.618Z,69.07
2022-09-12T09:46:28.655Z,67.77
2022-09-12T09:47:30.779Z,65.81
2022-09-12T09:48:38.501Z,65.81
2022-09-12T09:49:41.246Z,64.10
2022-09-12T09:50:45.983Z,65.31
2022-09-12T09:51:48.414Z,64.77
2022-09-12T09:52:52.170Z,64.17
2022-09-12T09:53:58.848Z,63.85
2022-09-12T09:55:01.494Z,63.71
2022-09-12T09:56:07.219Z,63.55
2022-09-12T09:57:32.669Z,64.12
2022-09-12T09:58:36.295Z,63.63
2022-09-12T09:59:39.048Z,64.19
2022-09-12T10:00:43.106Z,64.50
2022-09-12T10:01:56.800Z,64.35
2022-09-12T10:03:27.009Z,63.42
2022-09-12T10:04:40.544Z,63.71
2022-09-12T10:05:53.886Z,62.35
2022-09-12T10:07:02.047Z,62.97
2022-09-12T10:08:07.140Z,62.97
2022-09-12T10:09:15.769Z,63.10
2022-09-12T10:10:19.816Z,63.39
2022-09-12T10:11:22.242Z,63.40
2022-09-12T10:12:28.639Z,62.50
2022-09-12T10:13:52.350Z,62.78
2022-09-12T10:15:00.852Z,63.29
2022-09-12T10:16:06.581Z,63.35
2022-09-12T10:17:34.323Z,63.52
2022-09-12T10:18:38.710Z,61.55
2022-09-12T10:19:41.242Z,62.04
2022-09-12T10:20:45.062Z,61.82
2022-09-12T10:21:50.688Z,62.29
2022-09-12T10:22:53.365Z,62.50
2022-09-12T10:24:07.198Z,61.48
2022-09-12T10:25:13.551Z,61.98
2022-09-12T10:26:20.260Z,61.81
2022-09-12T10:27:25.410Z,61.16
2022-09-12T10:29:48.070Z,62.36
2022-09-12T10:30:52.900Z,61.57
2022-09-12T10:31:58.440Z,61.96
2022-09-12T10:33:10.678Z,60.25
2022-09-12T10:34:29.282Z,60.51
2022-09-12T10:35:34.909Z,61.31
2022-09-12T10:36:39.773Z,59.78
2022-09-12T10:37:48.363Z,61.01
2022-09-12T10:38:58.458Z,59.85
2022-09-12T10:40:03.748Z,60.71
2022-09-12T10:41:08.205Z,60.59
2022-09-12T10:42:15.116Z,60.61
2022-09-12T10:43:20.019Z,60.25
2022-09-12T10:44:29.767Z,60.22
2022-09-12T10:45:38.040Z,60.25
2022-09-12T10:46:40.904Z,60.77
2022-09-12T10:47:43.434Z,62.26
2022-09-12T10:48:47.965Z,61.87
2022-09-12T10:49:49.946Z,61.44
2022-09-12T10:50:52.086Z,61.50
2022-09-12T10:51:55.571Z,61.67
2022-09-12T10:53:23.786Z,58.54
2022-09-12T10:54:27.457Z,58.54
2022-09-12T10:55:33.250Z,58.58
2022-09-12T10:56:48.020Z,59.59
2022-09-12T10:58:17.493Z,60.39
2022-09-12T10:59:29.692Z,60.67
2022-09-12T11:00:35.799Z,61.12
2022-09-12T11:01:51.126Z,62.17
2022-09-12T11:03:25.429Z,61.46
2022-09-12T11:04:43.759Z,62.14
2022-09-12T11:06:00.113Z,64.01
2022-09-12T11:07:12.745Z,63.60
2022-09-12T11:08:30.296Z,64.07
2022-09-12T11:10:09.983Z,63.59
2022-09-12T11:11:15.719Z,64.05
2022-09-12T11:12:24.351Z,64.80
2022-09-12T11:13:44.816Z,65.24
2022-09-12T11:15:02.757Z,65.37
2022-09-12T11:16:26.144Z,66.00
2022-09-12T11:17:37.718Z,66.37
2022-09-12T11:19:01.186Z,66.99
2022-09-12T11:20:27.676Z,66.44
2022-09-12T11:21:33.294Z,66.23
2022-09-12T11:23:00.435Z,67.04
2022-09-12T11:24:14.858Z,67.12
2022-09-12T11:25:27.173Z,66.08
2022-09-12T11:26:53.629Z,66.35
2022-09-12T11:28:17.391Z,65.86
2022-09-12T11:29:40.358Z,65.65
2022-09-12T11:30:58.429Z,66.29
2022-09-12T11:32:34.593Z,65.89
2022-09-12T11:33:45.917Z,66.62
2022-09-12T11:34:51.804Z,67.40
2022-09-12T11:35:55.734Z,67.40
2022-09-12T11:37:21.616Z,67.27
2022-09-12T11:38:36.407Z,67.89
2022-09-12T11:39:40.019Z,67.52
2022-09-12T11:40:52.431Z,67.04
2022-09-12T11:41:58.542Z,67.71
2022-09-12T11:43:05.153Z,67.40
2022-09-12T11:44:16.831Z,67.30
2022-09-12T11:45:37.833Z,67.46
2022-09-12T11:46:43.240Z,67.85
2022-09-12T11:47:48.854Z,66.25
2022-09-12T11:49:00.318Z,67.45
2022-09-12T11:51:19.862Z,68.16
2022-09-12T11:52:29.009Z,66.77
2022-09-12T11:53:35.229Z,66.75
2022-09-12T11:54:53.552Z,66.87
2022-09-12T11:56:09.877Z,66.78
2022-09-12T11:57:28.508Z,67.07
2022-09-12T11:58:31.623Z,68.19
2022-09-12T11:59:53.683Z,68.46
2022-09-12T12:01:05.575Z,68.08
2022-09-12T12:02:14.166Z,68.33
2022-09-12T12:03:32.011Z,68.69
2022-09-12T12:04:40.516Z,69.36
2022-09-12T12:06:15.260Z,70.05
2022-09-12T12:07:17.326Z,69.48
2022-09-12T12:08:22.885Z,69.76
2022-09-12T12:09:24.925Z,70.92
2022-09-12T12:10:36.980Z,70.50
2022-09-12T12:11:43.079Z,70.55
2022-09-12T12:12:46.054Z,70.58
2022-09-12T12:13:57.541Z,70.34
2022-09-12T12:15:01.737Z,70.29
2022-09-12T12:16:29.824Z,70.45
2022-09-12T12:17:34.414Z,70.56
2022-09-12T12:18:38.837Z,70.63
2022-09-12T12:19:44.489Z,71.80
2022-09-12T12:20:47.093Z,71.50
2022-09-12T12:21:51.005Z,71.34
2022-09-12T12:22:54.792Z,71.19
2022-09-12T12:24:25.254Z,71.60
2022-09-12T12:25:43.185Z,72.42
2022-09-12T12:26:52.186Z,71.72
2022-09-12T12:27:57.533Z,72.41
2022-09-12T12:28:59.992Z,73.62
2022-09-12T12:30:02.226Z,72.81
2022-09-12T12:31:04.817Z,73.76
2022-09-12T12:32:10.712Z,73.37
2022-09-12T12:33:23.030Z,73.91
2022-09-12T12:34:38.766Z,73.30
2022-09-12T12:35:59.874Z,73.42
2022-09-12T12:37:26.033Z,74.50
2022-09-12T12:38:32.715Z,76.20
2022-09-12T12:39:41.761Z,74.22
2022-09-12T12:40:44.171Z,73.68
2022-09-12T12:41:46.446Z,73.86
2022-09-12T12:42:57.897Z,73.93
2022-09-12T12:44:03.711Z,74.09
2022-09-12T12:45:19.451Z,74.20
2022-09-12T12:46:25.924Z,74.41
2022-09-12T12:47:33.866Z,75.29
2022-09-12T12:48:56.764Z,75.34
2022-09-12T12:50:02.333Z,76.34
2022-09-12T12:51:39.120Z,76.48
2022-09-12T12:53:00.577Z,76.14
2022-09-12T12:54:09.778Z,76.55
2022-09-12T12:55:16.051Z,76.78
2022-09-12T12:56:31.580Z,76.90
2022-09-12T12:57:55.864Z,76.74
2022-09-12T12:59:04.126Z,77.08
2022-09-12T13:00:22.302Z,77.79
2022-09-12T13:01:25.663Z,78.13
2022-09-12T13:02:40.673Z,78.29
2022-09-12T13:04:02.098Z,78.50
2022-09-12T13:06:42.034Z,77.52
2022-09-12T13:07:44.688Z,78.07
2022-09-12T13:08:50.602Z,78.15
2022-09-12T13:09:54.753Z,77.95
2022-09-12T13:11:03.425Z,78.09
2022-09-12T13:12:09.075Z,78.03
2022-09-12T13:13:15.668Z,78.17
2022-09-12T13:14:44.321Z,78.13
2022-09-12T13:15:49.587Z,78.67
2022-09-12T13:16:58.627Z,78.73
2022-09-12T13:18:03.451Z,78.26
2022-09-12T13:19:18.217Z,78.34
2022-09-12T13:20:29.197Z,78.52
2022-09-12T13:21:31.733Z,79.15
2022-09-12T13:22:40.686Z,79.65
2022-09-12T13:23:43.272Z,79.46
2022-09-12T13:24:47.596Z,79.10
2022-09-12T13:25:55.895Z,79.37
2022-09-12T13:26:58.739Z,79.07
2022-09-12T13:28:04.869Z,79.37
2022-09-12T13:29:16.107Z,79.43
2022-09-12T13:30:19.987Z,80.20
2022-09-12T13:31:27.160Z,80.15
2022-09-12T13:32:31.051Z,80.03
2022-09-12T13:33:48.934Z,79.83
2022-09-12T13:34:55.680Z,79.66
2022-09-12T13:36:17.958Z,79.58
2022-09-12T13:37:27.213Z,79.34
2022-09-12T13:38:56.622Z,78.54
2022-09-12T13:40:24.925Z,78.71
2022-09-12T13:42:01.079Z,78.47
2022-09-12T13:43:12.498Z,77.71
2022-09-12T13:44:18.129Z,78.12
2022-09-12T13:45:25.181Z,77.76
2022-09-12T13:46:31.094Z,77.97
2022-09-12T13:47:43.342Z,78.60
2022-09-12T13:48:46.258Z,77.50
2022-09-12T13:49:50.579Z,78.27
2022-09-12T13:50:55.806Z,78.25
2022-09-12T13:52:02.447Z,77.66
2022-09-12T13:53:14.500Z,78.27
2022-09-12T13:54:22.527Z,78.37
2022-09-12T13:55:35.281Z,77.64
2022-09-12T13:56:49.306Z,77.39
2022-09-12T13:58:03.746Z,77.28
2022-09-12T13:59:09.899Z,77.36
2022-09-12T14:00:16.262Z,77.18
2022-09-12T14:01:19.406Z,76.21
2022-09-12T14:02:24.016Z,77.37
2022-09-12T14:03:36.072Z,77.08
2022-09-12T14:04:37.999Z,77.16
2022-09-12T14:05:42.376Z,77.29
2022-09-12T14:06:52.405Z,77.27
2022-09-12T14:08:02.085Z,76.86
2022-09-12T14:09:08.495Z,76.81
2022-09-12T14:10:17.641Z,76.23
2022-09-12T14:12:38.883Z,76.42
2022-09-12T14:13:41.392Z,76.40
2022-09-12T14:14:46.963Z,76.20
2022-09-12T14:15:52.236Z,76.01
2022-09-12T14:16:54.629Z,75.83
2022-09-12T14:18:00.208Z,75.88
2022-09-12T14:19:02.955Z,75.90
2022-09-12T14:20:08.916Z,76.09
2022-09-12T14:21:29.696Z,76.02
2022-09-12T14:22:33.580Z,76.08
2022-09-12T14:23:41.711Z,76.52
2022-09-12T14:24:48.270Z,76.62
2022-09-12T14:25:50.647Z,76.61
2022-09-12T14:26:56.091Z,76.99
2022-09-12T14:27:58.744Z,76.98
2022-09-12T14:29:04.340Z,76.96
2022-09-12T14:30:11.179Z,76.95
2022-09-12T14:31:31.606Z,77.00
2022-09-12T14:32:34.243Z,77.16
2022-09-12T14:33:53.277Z,76.64
2022-09-12T14:35:20.610Z,76.67
2022-09-12T14:36:28.508Z,76.63
2022-09-12T14:37:31.230Z,76.54
2022-09-12T14:38:42.581Z,77.03
2022-09-12T14:39:45.213Z,77.48
2022-09-12T14:40:53.805Z,77.34
2022-09-12T14:42:16.517Z,77.09
2022-09-12T14:43:28.067Z,77.77
2022-09-12T14:44:32.250Z,77.95
2022-09-12T14:45:34.526Z,77.61